createdAt,value
2018-09-13T00:00:00.504Z,17.97
2018-09-13T00:02:28.248Z,19.13
2018-09-13T00:04:56.015Z,19.90
2018-09-13T00:07:23.752Z,18.13
2018-09-13T00:09:51.585Z,16.60
2018-09-13T00:12:19.357Z,16.67
2018-09-13T00:14:53.727Z,15.90
2018-09-13T00:17:21.491Z,14.73
2018-09-13T00:19:49.349Z,15.60
2018-09-13T00:22:17.207Z,14.13
2018-09-13T00:24:44.915Z,14.73
2018-09-13T00:27:12.686Z,14.13
2018-09-13T00:29:40.593Z,14.33
2018-09-13T00:32:08.333Z,13.63
2018-09-13T00:34:36.125Z,15.50
2018-09-13T00:37:03.960Z,13.33
2018-09-13T00:39:32.876Z,14.33
2018-09-13T00:42:00.582Z,13.10
2018-09-13T00:44:28.364Z,11.87
2018-09-13T00:46:56.100Z,12.77
2018-09-13T00:49:23.890Z,11.77
2018-09-13T00:51:51.597Z,9.37
2018-09-13T00:54:19.319Z,11.53
2018-09-13T00:56:47.044Z,11.13
2018-09-13T00:59:15.980Z,10.53
2018-09-13T01:01:43.720Z,8.77
2018-09-13T01:04:11.431Z,9.20
2018-09-13T01:06:39.255Z,10.47
2018-09-13T01:09:09.261Z,11.67
2018-09-13T01:11:37.082Z,10.13
2018-09-13T01:14:04.897Z,9.43
2018-09-13T01:16:32.698Z,12.97
2018-09-13T01:19:00.656Z,9.13
2018-09-13T01:21:28.408Z,8.83
2018-09-13T01:23:56.113Z,11.03
2018-09-13T01:26:23.885Z,11.00
2018-09-13T01:28:51.819Z,11.50
2018-09-13T01:31:19.551Z,9.47
2018-09-13T01:33:47.385Z,9.10
2018-09-13T01:36:15.078Z,10.40
2018-09-13T01:38:42.913Z,9.70
2018-09-13T01:41:10.705Z,9.73
2018-09-13T01:43:38.455Z,11.33
2018-09-13T01:46:06.294Z,11.30
2018-09-13T01:48:36.209Z,13.47
2018-09-13T01:51:03.956Z,9.37
2018-09-13T01:53:31.677Z,8.53
2018-09-13T01:55:59.395Z,9.97
2018-09-13T01:58:27.239Z,9.77
2018-09-13T02:00:55.002Z,12.00
2018-09-13T02:03:22.967Z,9.33
2018-09-13T02:05:50.705Z,11.03
2018-09-13T02:08:18.472Z,9.70
2018-09-13T02:10:46.197Z,11.90
2018-09-13T02:13:13.937Z,11.03
2018-09-13T02:15:41.673Z,10.60
2018-09-13T02:18:09.672Z,10.40
2018-09-13T02:20:37.458Z,11.87
2018-09-13T02:23:05.213Z,13.63
2018-09-13T02:25:32.972Z,9.30
2018-09-13T02:28:01.824Z,12.20
2018-09-13T02:30:29.569Z,11.20
2018-09-13T02:32:57.283Z,12.03
2018-09-13T02:35:25.053Z,10.77
2018-09-13T02:37:53.963Z,10.63
2018-09-13T02:40:21.737Z,11.17
2018-09-13T02:42:49.571Z,10.77
2018-09-13T02:45:17.407Z,11.43
2018-09-13T02:47:49.143Z,13.60
2018-09-13T02:50:16.915Z,14.03
2018-09-13T02:52:44.744Z,11.53
2018-09-13T02:55:12.445Z,10.57
2018-09-13T02:57:40.400Z,14.60
2018-09-13T03:00:08.908Z,10.80
2018-09-13T03:02:36.676Z,12.10
2018-09-13T03:05:04.593Z,11.07
2018-09-13T03:07:32.331Z,11.70
2018-09-13T03:10:00.108Z,10.53
2018-09-13T03:12:27.898Z,13.33
2018-09-13T03:14:55.615Z,11.10
2018-09-13T03:17:23.355Z,9.50
2018-09-13T03:19:51.147Z,12.73
2018-09-13T03:22:18.929Z,11.43
2018-09-13T03:24:46.630Z,10.57
2018-09-13T03:27:14.357Z,12.10
2018-09-13T03:29:42.172Z,12.27
2018-09-13T03:32:09.909Z,11.00
2018-09-13T03:34:37.714Z,12.60
2018-09-13T03:37:05.480Z,10.63
2018-09-13T03:39:33.275Z,10.17
2018-09-13T03:42:01.052Z,9.23
2018-09-13T03:44:28.828Z,14.63
2018-09-13T03:46:56.533Z,12.73
2018-09-13T03:49:24.251Z,9.90
2018-09-13T03:51:52.421Z,10.87
2018-09-13T03:54:20.198Z,10.17
2018-09-13T03:56:47.925Z,10.77
2018-09-13T03:59:15.720Z,9.33
2018-09-13T04:01:43.455Z,11.50
2018-09-13T04:04:11.256Z,10.93
2018-09-13T04:06:39.007Z,12.70
2018-09-13T04:09:09.173Z,11.77
2018-09-13T04:11:37.005Z,11.53
2018-09-13T04:14:04.820Z,9.23
2018-09-13T04:16:32.561Z,13.23
2018-09-13T04:19:00.300Z,10.37
2018-09-13T04:21:28.361Z,10.93
2018-09-13T04:23:56.263Z,10.67
2018-09-13T04:26:24.161Z,12.70
2018-09-13T04:28:52.485Z,10.87
2018-09-13T04:31:20.211Z,10.53
2018-09-13T04:33:47.940Z,10.67
2018-09-13T04:36:15.707Z,8.43
2018-09-13T04:38:43.467Z,11.77
2018-09-13T04:41:11.213Z,9.73
2018-09-13T04:43:39.006Z,10.50
2018-09-13T04:46:06.892Z,10.90
2018-09-13T04:48:34.618Z,11.63
2018-09-13T04:51:02.709Z,9.80
2018-09-13T04:53:30.837Z,9.97
2018-09-13T04:55:58.644Z,12.00
2018-09-13T04:58:26.455Z,12.00
2018-09-13T05:00:54.249Z,9.20
2018-09-13T05:03:22.009Z,10.00
2018-09-13T05:05:49.775Z,11.00
2018-09-13T05:08:17.514Z,9.23
2018-09-13T05:10:45.355Z,9.17
2018-09-13T05:13:13.205Z,9.13
2018-09-13T05:15:40.955Z,11.40
2018-09-13T05:18:08.752Z,10.07
2018-09-13T05:20:36.557Z,10.90
2018-09-13T05:23:04.767Z,10.10
2018-09-13T05:25:32.625Z,8.90
2018-09-13T05:28:00.424Z,10.87
2018-09-13T05:30:28.240Z,10.47
2018-09-13T05:32:56.355Z,11.97
2018-09-13T05:35:24.097Z,9.70
2018-09-13T05:37:51.890Z,9.20
2018-09-13T05:40:19.701Z,8.87
2018-09-13T05:42:47.605Z,8.00
2018-09-13T05:45:15.727Z,8.10
2018-09-13T05:47:43.695Z,10.67
2018-09-13T05:50:11.462Z,8.40
2018-09-13T05:52:39.265Z,9.60
2018-09-13T05:55:07.307Z,9.53
2018-09-13T05:57:35.137Z,10.50
2018-09-13T06:00:03.009Z,10.00
2018-09-13T06:02:30.782Z,11.93
2018-09-13T06:04:58.507Z,9.43
2018-09-13T06:07:26.299Z,10.10
2018-09-13T06:09:54.176Z,9.33
2018-09-13T06:12:21.905Z,13.13
2018-09-13T06:14:49.675Z,7.70
2018-09-13T06:17:17.462Z,9.03
2018-09-13T06:19:45.268Z,7.10
2018-09-13T06:22:12.961Z,6.87
2018-09-13T06:24:40.725Z,8.80
2018-09-13T06:27:08.507Z,7.97
2018-09-13T06:29:36.634Z,8.87
2018-09-13T06:32:04.353Z,7.10
2018-09-13T06:34:32.103Z,7.87
2018-09-13T06:36:59.875Z,9.57
2018-09-13T06:39:27.789Z,10.10
2018-09-13T06:41:55.577Z,6.73
2018-09-13T06:44:23.366Z,10.80
2018-09-13T06:46:51.220Z,9.00
2018-09-13T06:49:19.117Z,8.37
2018-09-13T06:51:46.954Z,9.70
2018-09-13T06:54:14.773Z,8.10
2018-09-13T06:56:42.749Z,9.30
2018-09-13T06:59:10.497Z,10.50
2018-09-13T07:01:38.306Z,7.53
2018-09-13T07:04:06.120Z,11.90
2018-09-13T07:06:33.875Z,11.37
2018-09-13T07:09:01.686Z,9.47
2018-09-13T07:11:29.433Z,9.80
2018-09-13T07:13:57.151Z,10.43
2018-09-13T07:16:24.871Z,11.23
2018-09-13T07:18:52.576Z,9.47
2018-09-13T07:21:20.330Z,12.43
2018-09-13T07:23:48.064Z,10.03
2018-09-13T07:26:15.802Z,11.57
2018-09-13T07:28:43.538Z,10.43
2018-09-13T07:31:11.295Z,11.23
2018-09-13T07:33:39.081Z,9.67
2018-09-13T07:36:06.839Z,9.63
2018-09-13T07:38:34.643Z,8.30
2018-09-13T07:41:02.385Z,9.13
2018-09-13T07:43:30.105Z,7.83
2018-09-13T07:45:57.871Z,10.40
2018-09-13T07:48:25.630Z,7.47
2018-09-13T07:50:53.356Z,12.77
2018-09-13T07:53:21.196Z,12.00
2018-09-13T07:55:49.195Z,10.57
2018-09-13T07:58:17.014Z,9.17
2018-09-13T08:00:44.751Z,10.73
2018-09-13T08:03:12.482Z,7.80
2018-09-13T08:05:40.201Z,9.90
2018-09-13T08:08:07.946Z,11.57
2018-09-13T08:10:35.759Z,8.53
2018-09-13T08:13:03.485Z,10.40
2018-09-13T08:15:31.314Z,7.77
2018-09-13T08:17:59.132Z,8.50
2018-09-13T08:20:26.864Z,8.60
2018-09-13T08:22:54.656Z,7.70
2018-09-13T08:25:22.373Z,11.60
2018-09-13T08:27:50.104Z,10.23
2018-09-13T08:30:17.843Z,6.77
2018-09-13T08:32:45.584Z,6.00
2018-09-13T08:35:13.376Z,9.70
2018-09-13T08:37:41.093Z,7.33
2018-09-13T08:40:08.857Z,10.97
2018-09-13T08:42:36.596Z,5.70
2018-09-13T08:45:04.367Z,6.33
2018-09-13T08:47:32.100Z,6.80
2018-09-13T08:49:59.967Z,6.00
2018-09-13T08:52:27.826Z,6.67
2018-09-13T08:54:55.535Z,5.80
2018-09-13T08:57:23.368Z,6.33
2018-09-13T08:59:51.226Z,6.67
2018-09-13T09:02:19.122Z,8.27
2018-09-13T09:04:46.844Z,7.80
2018-09-13T09:07:14.619Z,5.50
2018-09-13T09:09:42.343Z,6.37
2018-09-13T09:12:10.084Z,6.83
2018-09-13T09:14:37.803Z,8.40
2018-09-13T09:17:05.903Z,5.23
2018-09-13T09:19:33.660Z,7.60
2018-09-13T09:22:01.373Z,7.47
2018-09-13T09:24:29.130Z,4.67
2018-09-13T09:26:56.885Z,6.03
2018-09-13T09:29:24.781Z,6.97
2018-09-13T09:31:52.441Z,9.60
2018-09-13T09:34:20.227Z,9.47
2018-09-13T09:36:47.989Z,6.63
2018-09-13T09:39:15.754Z,5.40
2018-09-13T09:41:43.701Z,6.37
2018-09-13T09:44:11.526Z,5.43
2018-09-13T09:46:42.884Z,7.93
2018-09-13T09:49:10.680Z,7.20
2018-09-13T09:51:38.436Z,6.70
2018-09-13T09:54:06.176Z,7.50
2018-09-13T09:56:33.923Z,4.43
2018-09-13T09:59:01.661Z,10.00
2018-09-13T10:01:35.521Z,5.63
2018-09-13T10:04:03.305Z,5.57
2018-09-13T10:06:31.097Z,8.57
2018-09-13T10:08:58.952Z,7.20
2018-09-13T10:11:26.731Z,6.60
2018-09-13T10:13:54.470Z,7.53
2018-09-13T10:16:27.730Z,5.47
2018-09-13T10:19:00.954Z,5.87
2018-09-13T10:21:34.255Z,9.10
2018-09-13T10:24:07.781Z,7.00
2018-09-13T10:26:41.172Z,5.83
2018-09-13T10:29:14.496Z,7.40
2018-09-13T10:31:47.670Z,5.80
2018-09-13T10:34:21.223Z,5.63
2018-09-13T10:36:54.563Z,4.77
2018-09-13T10:39:27.955Z,5.23
2018-09-13T10:42:01.397Z,5.93
2018-09-13T10:45:32.154Z,6.37
2018-09-13T10:48:05.547Z,6.87
2018-09-13T10:50:38.517Z,4.83
2018-09-13T10:55:16.831Z,3.10
2018-09-13T10:57:44.807Z,7.97
2018-09-13T11:00:13.918Z,6.37
2018-09-13T11:02:41.724Z,7.23
2018-09-13T11:05:09.552Z,7.00
2018-09-13T11:07:37.304Z,4.63
2018-09-13T11:10:06.261Z,5.77
2018-09-13T11:12:43.485Z,7.43
2018-09-13T11:15:16.859Z,6.20
2018-09-13T11:17:44.674Z,5.67
2018-09-13T11:20:12.465Z,6.87
2018-09-13T11:22:40.265Z,6.60
2018-09-13T11:25:08.059Z,5.67
2018-09-13T11:27:35.874Z,7.27
2018-09-13T11:30:03.889Z,10.03
2018-09-13T11:32:31.729Z,8.37
2018-09-13T11:34:59.614Z,8.00
2018-09-13T11:37:27.399Z,10.30
2018-09-13T11:39:55.313Z,7.53
2018-09-13T11:42:23.021Z,7.63
2018-09-13T11:44:50.838Z,8.93
2018-09-13T11:47:18.575Z,7.53
2018-09-13T11:49:46.452Z,7.83
2018-09-13T11:52:14.335Z,7.77
2018-09-13T11:54:42.063Z,7.27
2018-09-13T11:57:09.851Z,7.50
2018-09-13T11:59:37.591Z,6.57
2018-09-13T12:02:05.515Z,5.93
2018-09-13T12:04:33.313Z,6.33
2018-09-13T12:07:01.039Z,6.57
2018-09-13T12:09:28.767Z,7.03
2018-09-13T12:11:56.509Z,5.77
2018-09-13T12:14:24.297Z,4.90
2018-09-13T12:16:52.053Z,6.30
2018-09-13T12:19:19.833Z,4.97
2018-09-13T12:21:47.570Z,7.00
2018-09-13T12:24:15.303Z,8.90
2018-09-13T12:26:43.008Z,6.27
2018-09-13T12:29:10.760Z,4.90
2018-09-13T12:31:38.581Z,6.03
2018-09-13T12:34:06.404Z,4.63
2018-09-13T12:36:34.163Z,3.63
2018-09-13T12:39:02.025Z,3.10
2018-09-13T12:41:29.790Z,5.70
2018-09-13T12:43:57.520Z,4.03
2018-09-13T12:46:25.279Z,5.30
2018-09-13T12:48:53.217Z,3.67
2018-09-13T12:51:21.139Z,5.37
2018-09-13T12:53:49.049Z,4.70
2018-09-13T12:56:17.070Z,4.20
2018-09-13T12:58:45.025Z,3.43
2018-09-13T13:01:12.793Z,3.83
2018-09-13T13:03:40.550Z,5.30
2018-09-13T13:06:08.363Z,2.53
2018-09-13T13:08:36.181Z,4.50
2018-09-13T13:11:04.068Z,4.37
2018-09-13T13:13:31.879Z,4.77
2018-09-13T13:15:59.618Z,4.07
2018-09-13T13:18:27.393Z,4.20
2018-09-13T13:20:55.214Z,3.83
2018-09-13T13:23:23.200Z,4.83
2018-09-13T13:25:51.224Z,5.67
2018-09-13T13:28:19.012Z,5.30
2018-09-13T13:30:46.877Z,4.77
2018-09-13T13:33:14.849Z,4.03
2018-09-13T13:35:42.865Z,4.10
2018-09-13T13:38:10.681Z,5.37
2018-09-13T13:40:38.567Z,2.70
2018-09-13T13:43:06.347Z,5.17
2018-09-13T13:45:34.242Z,5.03
2018-09-13T13:48:02.324Z,5.73
2018-09-13T13:50:30.249Z,6.13
2018-09-13T13:52:57.985Z,6.63
2018-09-13T13:55:26.081Z,7.63
2018-09-13T13:57:53.869Z,4.80
2018-09-13T14:00:21.949Z,3.73
2018-09-13T14:02:49.877Z,6.70
2018-09-13T14:05:17.958Z,3.40
2018-09-13T14:07:45.964Z,3.87
2018-09-13T14:10:14.030Z,2.83
2018-09-13T14:12:41.951Z,4.37
2018-09-13T14:15:09.891Z,3.13
2018-09-13T14:17:37.837Z,3.43
2018-09-13T14:20:05.882Z,3.17
2018-09-13T14:22:33.886Z,3.47
2018-09-13T14:25:01.975Z,3.43
2018-09-13T14:27:29.994Z,5.57
2018-09-13T14:29:58.086Z,3.87
2018-09-13T14:32:26.005Z,4.50
2018-09-13T14:34:54.038Z,4.73
2018-09-13T14:37:21.994Z,3.47
2018-09-13T14:39:50.079Z,3.53
2018-09-13T14:42:17.958Z,5.40
2018-09-13T14:44:45.858Z,4.03
2018-09-13T14:47:13.770Z,6.27
2018-09-13T14:49:41.651Z,4.20
2018-09-13T14:52:09.568Z,4.30
2018-09-13T14:54:37.496Z,4.83
2018-09-13T14:57:05.514Z,4.50
2018-09-13T14:59:33.517Z,3.57
2018-09-13T15:02:01.405Z,3.47
2018-09-13T15:04:29.575Z,7.83
2018-09-13T15:06:57.791Z,5.77
2018-09-13T15:09:25.825Z,6.17
2018-09-13T15:11:53.947Z,5.70
2018-09-13T15:14:22.022Z,3.90
2018-09-13T15:16:50.035Z,5.27
2018-09-13T15:19:18.061Z,4.70
2018-09-13T15:21:46.056Z,5.47
2018-09-13T15:24:14.114Z,4.03
2018-09-13T15:26:42.069Z,4.40
2018-09-13T15:29:10.241Z,5.10
2018-09-13T15:31:38.168Z,5.10
2018-09-13T15:34:06.325Z,4.23
2018-09-13T15:36:34.330Z,5.37
2018-09-13T15:39:02.402Z,5.47
2018-09-13T15:41:30.313Z,3.00
2018-09-13T15:43:58.400Z,5.87
2018-09-13T15:46:26.471Z,3.87
2018-09-13T15:48:54.567Z,6.87
2018-09-13T15:51:22.675Z,3.27
2018-09-13T15:53:50.679Z,5.47
2018-09-13T15:56:18.713Z,4.37
2018-09-13T15:58:46.992Z,5.53
2018-09-13T16:01:14.914Z,4.77
2018-09-13T16:03:42.817Z,4.87
2018-09-13T16:06:10.953Z,2.57
2018-09-13T16:08:39.034Z,4.27
2018-09-13T16:11:07.222Z,3.93
2018-09-13T16:13:35.275Z,2.57
2018-09-13T16:16:03.340Z,6.20
2018-09-13T16:18:31.525Z,3.03
2018-09-13T16:20:59.532Z,6.63
2018-09-13T16:23:27.627Z,4.23
2018-09-13T16:25:55.545Z,6.53
2018-09-13T16:28:23.545Z,4.67
2018-09-13T16:30:51.480Z,5.23
2018-09-13T16:33:19.921Z,7.90
2018-09-13T16:35:52.319Z,4.17
2018-09-13T16:38:29.062Z,6.83
2018-09-13T16:41:03.269Z,4.00
2018-09-13T16:43:43.229Z,4.93
2018-09-13T16:46:17.677Z,4.60
2018-09-13T16:48:45.736Z,4.03
2018-09-13T16:51:13.797Z,3.10
2018-09-13T16:53:42.037Z,4.23
2018-09-13T16:56:10.159Z,3.27
2018-09-13T16:58:38.309Z,3.43
2018-09-13T17:01:06.302Z,2.73
2018-09-13T17:03:34.175Z,4.80
2018-09-13T17:06:02.143Z,2.40
2018-09-13T17:08:30.218Z,5.53
2018-09-13T17:10:58.184Z,7.20
2018-09-13T17:13:26.078Z,4.77
2018-09-13T17:15:53.925Z,4.63
2018-09-13T17:18:21.760Z,3.30
2018-09-13T17:20:49.730Z,6.63
2018-09-13T17:23:17.652Z,4.90
2018-09-13T17:25:45.627Z,5.07
2018-09-13T17:28:13.569Z,3.20
2018-09-13T17:30:41.589Z,5.90
2018-09-13T17:33:09.637Z,4.47
2018-09-13T17:35:37.671Z,5.20
2018-09-13T17:38:05.714Z,5.57
2018-09-13T17:40:33.754Z,4.60
2018-09-13T17:43:01.772Z,4.03
2018-09-13T17:45:29.632Z,8.30
2018-09-13T17:47:57.559Z,2.87
2018-09-13T17:50:25.886Z,5.63
2018-09-13T17:52:54.098Z,4.97
2018-09-13T17:55:22.248Z,4.87
2018-09-13T17:57:50.581Z,6.13
2018-09-13T18:00:18.680Z,7.10
2018-09-13T18:02:47.055Z,3.27
2018-09-13T18:05:15.235Z,4.50
2018-09-13T18:07:43.439Z,5.07
2018-09-13T18:10:11.491Z,5.60
2018-09-13T18:12:39.770Z,6.20
2018-09-13T18:15:08.130Z,4.00
2018-09-13T18:17:36.304Z,4.10
2018-09-13T18:20:04.268Z,3.10
2018-09-13T18:22:32.265Z,3.10
2018-09-13T18:25:00.336Z,4.93
2018-09-13T18:27:28.369Z,3.90
2018-09-13T18:29:56.497Z,6.20
2018-09-13T18:32:24.616Z,5.10
2018-09-13T18:34:52.890Z,5.00
2018-09-13T18:37:21.025Z,3.83
2018-09-13T18:39:49.206Z,5.50
2018-09-13T18:42:17.397Z,8.10
2018-09-13T18:44:45.567Z,4.03
2018-09-13T18:47:14.152Z,7.10
2018-09-13T18:49:41.947Z,4.90
2018-09-13T18:52:09.762Z,7.17
2018-09-13T18:54:37.932Z,4.43
2018-09-13T18:57:06.167Z,5.30
2018-09-13T18:59:34.471Z,5.07
2018-09-13T19:02:02.541Z,7.17
2018-09-13T19:04:30.782Z,6.20
2018-09-13T19:06:58.976Z,3.27
2018-09-13T19:09:27.251Z,6.63
2018-09-13T19:11:55.296Z,6.20
2018-09-13T19:14:23.394Z,5.37
2018-09-13T19:16:51.533Z,5.03
2018-09-13T19:19:19.634Z,5.70
2018-09-13T19:21:48.665Z,6.37
2018-09-13T19:24:16.879Z,5.17
2018-09-13T19:26:45.315Z,7.90
2018-09-13T19:29:13.450Z,9.30
2018-09-13T19:31:41.643Z,4.83
2018-09-13T19:34:09.909Z,9.17
2018-09-13T19:36:38.123Z,3.60
2018-09-13T19:39:11.673Z,4.97
2018-09-13T19:41:40.193Z,5.17
2018-09-13T19:44:08.329Z,5.63
2018-09-13T19:46:36.497Z,6.70
2018-09-13T19:49:04.742Z,7.53
2018-09-13T19:51:32.698Z,5.27
2018-09-13T19:54:00.674Z,4.60
2018-09-13T19:56:28.737Z,10.20
2018-09-13T19:58:56.773Z,6.67
2018-09-13T20:01:24.813Z,3.97
2018-09-13T20:03:52.840Z,5.87
2018-09-13T20:06:20.984Z,6.93
2018-09-13T20:09:52.043Z,6.67
2018-09-13T20:12:20.144Z,7.60
2018-09-13T20:14:48.196Z,9.27
2018-09-13T20:17:16.245Z,7.73
2018-09-13T20:19:44.361Z,9.23
2018-09-13T20:22:13.056Z,6.83
2018-09-13T20:24:41.206Z,4.80
2018-09-13T20:27:09.334Z,6.77
2018-09-13T20:29:37.403Z,8.07
2018-09-13T20:32:05.523Z,5.73
2018-09-13T20:34:33.678Z,8.27
2018-09-13T20:37:01.592Z,8.67
2018-09-13T20:39:29.609Z,7.00
2018-09-13T20:41:57.666Z,7.30
2018-09-13T20:44:25.631Z,5.97
2018-09-13T20:46:53.635Z,9.10
2018-09-13T20:49:21.506Z,4.33
2018-09-13T20:51:49.471Z,6.40
2018-09-13T20:54:17.747Z,4.67
2018-09-13T20:56:45.643Z,5.37
2018-09-13T20:59:13.509Z,8.17
2018-09-13T21:01:41.599Z,7.57
2018-09-13T21:04:09.491Z,4.93
2018-09-13T21:06:37.411Z,6.53
2018-09-13T21:09:07.607Z,7.10
2018-09-13T21:11:35.543Z,8.47
2018-09-13T21:14:03.503Z,7.10
2018-09-13T21:16:31.443Z,4.83
2018-09-13T21:18:59.355Z,6.97
2018-09-13T21:21:27.743Z,5.37
2018-09-13T21:23:56.419Z,11.60
2018-09-13T21:26:24.337Z,6.97
2018-09-13T21:28:54.357Z,8.43
2018-09-13T21:31:22.219Z,5.43
2018-09-13T21:33:50.623Z,6.03
2018-09-13T21:36:18.516Z,7.43
2018-09-13T21:38:46.713Z,7.70
2018-09-13T21:41:14.674Z,5.30
2018-09-13T21:43:42.496Z,4.90
2018-09-13T21:46:10.393Z,7.83
2018-09-13T21:48:38.188Z,6.73
2018-09-13T21:51:06.213Z,7.03
2018-09-13T21:53:34.060Z,6.90
2018-09-13T21:56:01.899Z,8.00
2018-09-13T21:58:29.712Z,5.90
2018-09-13T22:00:57.633Z,6.40
2018-09-13T22:03:25.418Z,6.97
2018-09-13T22:05:53.257Z,6.50
2018-09-13T22:08:21.139Z,7.67
2018-09-13T22:10:49.717Z,5.67
2018-09-13T22:13:17.579Z,6.27
2018-09-13T22:15:45.389Z,7.97
2018-09-13T22:18:13.315Z,6.80
2018-09-13T22:20:41.243Z,8.23
2018-09-13T22:23:09.185Z,6.27
2018-09-13T22:25:37.093Z,8.23
2018-09-13T22:28:05.085Z,5.47
2018-09-13T22:30:32.991Z,6.03
2018-09-13T22:33:00.832Z,6.50
2018-09-13T22:35:28.708Z,8.07
2018-09-13T22:37:57.178Z,6.90
2018-09-13T22:40:25.071Z,8.73
2018-09-13T22:42:53.045Z,5.97
2018-09-13T22:45:20.950Z,5.73
2018-09-13T22:47:48.874Z,8.00
2018-09-13T22:50:16.722Z,5.47
2018-09-13T22:52:44.591Z,5.10
2018-09-13T22:55:12.471Z,6.77
2018-09-13T22:57:41.316Z,6.63
2018-09-13T23:00:09.320Z,5.77
2018-09-13T23:02:42.827Z,6.57
2018-09-13T23:05:10.799Z,5.90
2018-09-13T23:07:38.712Z,7.43
2018-09-13T23:10:06.677Z,5.33
2018-09-13T23:12:34.536Z,4.70
2018-09-13T23:15:02.438Z,7.50
2018-09-13T23:17:30.407Z,7.63
2018-09-13T23:19:58.271Z,5.87
2018-09-13T23:22:26.060Z,5.30
2018-09-13T23:24:53.932Z,7.73
2018-09-13T23:27:21.788Z,5.83
2018-09-13T23:29:49.608Z,7.07
2018-09-13T23:32:17.456Z,6.10
2018-09-13T23:34:45.303Z,5.57
2018-09-13T23:37:13.148Z,5.83
2018-09-13T23:39:41.309Z,6.40
2018-09-13T23:42:08.832Z,5.10
2018-09-13T23:44:36.686Z,5.50
2018-09-13T23:47:04.576Z,5.97
2018-09-13T23:49:32.510Z,4.77
2018-09-13T23:52:00.302Z,5.70
2018-09-13T23:54:28.200Z,6.33
2018-09-13T23:56:56.499Z,6.10
2018-09-13T23:59:24.365Z,7.73
